createdAt,value
2023-03-31T00:01:15.484Z,48.60
2023-03-31T00:03:45.117Z,48.40
2023-03-31T00:06:18.556Z,48.40
2023-03-31T00:08:51.913Z,48.50
2023-03-31T00:11:22.797Z,48.40
2023-03-31T00:13:51.635Z,48.40
2023-03-31T00:16:20.819Z,48.30
2023-03-31T00:18:51.261Z,48.40
2023-03-31T00:21:29.752Z,48.50
2023-03-31T00:24:01.938Z,48.60
2023-03-31T00:26:31.666Z,48.50
2023-03-31T00:29:01.730Z,48.50
2023-03-31T00:31:31.212Z,48.40
2023-03-31T00:34:00.789Z,48.70
2023-03-31T00:36:31.804Z,48.60
2023-03-31T00:39:04.660Z,48.20
2023-03-31T00:41:33.800Z,48.20
2023-03-31T00:44:18.714Z,48.30
2023-03-31T00:46:56.267Z,48.20
2023-03-31T00:49:34.021Z,48.30
2023-03-31T00:52:13.470Z,48.10
2023-03-31T00:54:47.147Z,48.10
2023-03-31T00:57:17.652Z,47.90
2023-03-31T00:59:53.022Z,48.00
2023-03-31T01:02:22.162Z,47.90
2023-03-31T01:04:57.527Z,47.80
2023-03-31T01:07:38.730Z,47.60
2023-03-31T01:10:09.394Z,47.50
2023-03-31T01:12:45.344Z,47.40
2023-03-31T01:15:14.745Z,47.50
2023-03-31T01:17:45.806Z,47.40
2023-03-31T01:20:32.640Z,47.40
2023-03-31T01:26:49.058Z,47.50
2023-03-31T01:29:45.932Z,47.30
2023-03-31T01:33:04.771Z,47.40
2023-03-31T01:36:27.432Z,47.30
2023-03-31T01:39:44.820Z,47.20
2023-03-31T01:42:26.244Z,47.20
2023-03-31T01:45:05.992Z,47.40
2023-03-31T01:47:44.592Z,47.20
2023-03-31T01:50:26.663Z,47.00
2023-03-31T01:53:07.146Z,47.20
2023-03-31T01:55:42.170Z,47.00
2023-03-31T01:58:20.353Z,47.10
2023-03-31T02:00:57.111Z,47.00
2023-03-31T02:03:34.507Z,47.20
2023-03-31T02:06:13.824Z,47.20
2023-03-31T02:08:50.152Z,47.00
2023-03-31T02:11:19.911Z,47.10
2023-03-31T02:13:55.661Z,46.90
2023-03-31T02:16:30.512Z,47.00
2023-03-31T02:19:05.448Z,46.80
2023-03-31T02:21:40.845Z,46.90
2023-03-31T02:24:15.921Z,46.90
2023-03-31T02:26:53.336Z,46.90
2023-03-31T02:29:24.579Z,46.80
2023-03-31T02:32:02.733Z,46.80
2023-03-31T02:34:31.978Z,46.80
2023-03-31T02:37:01.013Z,46.60
2023-03-31T02:39:35.999Z,46.80
2023-03-31T02:42:07.524Z,46.70
2023-03-31T02:44:40.323Z,46.70
2023-03-31T02:47:13.069Z,46.80
2023-03-31T02:49:47.144Z,46.70
2023-03-31T02:53:00.888Z,46.40
2023-03-31T02:55:53.431Z,46.50
2023-03-31T02:58:41.654Z,46.60
2023-03-31T03:01:37.665Z,46.70
2023-03-31T03:04:34.127Z,46.50
2023-03-31T03:07:14.803Z,46.40
2023-03-31T03:10:00.314Z,46.60
2023-03-31T03:12:39.320Z,46.60
2023-03-31T03:15:13.903Z,46.60
2023-03-31T03:17:47.630Z,46.60
2023-03-31T03:20:17.430Z,46.70
2023-03-31T03:22:46.532Z,46.70
2023-03-31T03:25:18.232Z,46.40
2023-03-31T03:27:48.494Z,46.60
2023-03-31T03:30:17.439Z,46.50
2023-03-31T03:32:47.840Z,46.40
2023-03-31T03:35:16.817Z,46.40
2023-03-31T03:37:45.836Z,46.50
2023-03-31T03:40:15.431Z,47.00
2023-03-31T03:42:45.338Z,46.20
2023-03-31T03:45:14.667Z,46.50
2023-03-31T03:47:43.865Z,46.30
2023-03-31T03:50:16.097Z,46.30
2023-03-31T03:52:45.785Z,46.20
2023-03-31T03:55:14.859Z,46.20
2023-03-31T03:57:43.861Z,46.20
2023-03-31T04:00:13.697Z,46.30
2023-03-31T04:02:44.437Z,46.30
2023-03-31T04:05:14.918Z,46.20
2023-03-31T04:07:44.047Z,46.20
2023-03-31T04:10:12.934Z,46.00
2023-03-31T04:12:41.940Z,46.00
2023-03-31T04:15:11.942Z,46.20
2023-03-31T04:17:41.059Z,46.10
2023-03-31T04:20:11.767Z,46.10
2023-03-31T04:22:42.342Z,46.10
2023-03-31T04:25:16.743Z,46.00
2023-03-31T04:27:50.826Z,46.10
2023-03-31T04:30:23.709Z,46.10
2023-03-31T04:32:55.571Z,46.10
2023-03-31T04:35:26.693Z,46.10
2023-03-31T04:37:59.049Z,46.10
2023-03-31T04:40:28.172Z,46.20
2023-03-31T04:42:57.140Z,46.20
2023-03-31T04:45:25.930Z,46.30
2023-03-31T04:47:55.019Z,46.30
2023-03-31T04:50:23.823Z,46.30
2023-03-31T04:52:52.880Z,46.40
2023-03-31T04:55:23.129Z,46.50
2023-03-31T04:57:52.589Z,46.50
2023-03-31T05:00:23.260Z,46.50
2023-03-31T05:02:52.729Z,46.50
2023-03-31T05:05:21.746Z,46.50
2023-03-31T05:07:50.930Z,46.50
2023-03-31T05:10:19.905Z,46.50
2023-03-31T05:12:50.460Z,46.60
2023-03-31T05:15:19.633Z,46.60
2023-03-31T05:17:48.852Z,46.50
2023-03-31T05:20:18.061Z,46.40
2023-03-31T05:22:47.853Z,46.50
2023-03-31T05:25:18.825Z,46.60
2023-03-31T05:27:51.156Z,46.60
2023-03-31T05:30:19.937Z,46.50
2023-03-31T05:32:49.000Z,46.50
2023-03-31T05:35:17.995Z,46.60
2023-03-31T05:37:47.124Z,46.40
2023-03-31T05:40:16.282Z,46.50
2023-03-31T05:42:45.265Z,46.60
2023-03-31T05:45:15.376Z,46.70
2023-03-31T05:47:44.442Z,46.70
2023-03-31T05:50:14.809Z,46.60
2023-03-31T05:52:44.057Z,46.50
2023-03-31T05:55:13.326Z,46.50
2023-03-31T05:57:42.369Z,46.50
2023-03-31T06:00:15.003Z,46.60
2023-03-31T06:02:44.152Z,46.50
2023-03-31T06:05:13.020Z,46.50
2023-03-31T06:07:42.022Z,46.40
2023-03-31T06:10:11.477Z,46.50
2023-03-31T06:12:40.473Z,46.30
2023-03-31T06:15:10.383Z,46.50
2023-03-31T06:17:40.872Z,46.50
2023-03-31T06:20:24.519Z,46.40
2023-03-31T06:22:56.292Z,46.50
2023-03-31T06:25:25.154Z,46.40
2023-03-31T06:27:54.136Z,46.30
2023-03-31T06:30:22.918Z,46.10
2023-03-31T06:32:53.354Z,45.70
2023-03-31T06:35:22.125Z,45.90
2023-03-31T06:37:51.206Z,45.90
2023-03-31T06:40:20.372Z,45.80
2023-03-31T06:42:49.461Z,45.80
2023-03-31T06:45:18.967Z,46.00
2023-03-31T06:47:48.199Z,45.90
2023-03-31T06:50:18.916Z,45.90
2023-03-31T06:52:47.976Z,45.60
2023-03-31T06:55:17.013Z,45.80
2023-03-31T06:57:46.043Z,45.60
2023-03-31T07:00:16.615Z,45.80
2023-03-31T07:02:45.718Z,45.30
2023-03-31T07:05:14.605Z,45.80
2023-03-31T07:07:46.503Z,45.30
2023-03-31T07:10:15.508Z,45.10
2023-03-31T07:12:44.698Z,45.40
2023-03-31T07:15:13.546Z,45.30
2023-03-31T07:17:43.133Z,45.50
2023-03-31T07:20:15.038Z,45.10
2023-03-31T07:22:47.608Z,44.80
2023-03-31T07:25:18.958Z,45.30
2023-03-31T07:27:48.071Z,44.80
2023-03-31T07:30:20.283Z,44.60
2023-03-31T07:32:51.513Z,44.30
2023-03-31T07:35:22.023Z,44.00
2023-03-31T07:37:53.989Z,44.00
2023-03-31T07:40:27.161Z,44.20
2023-03-31T07:42:57.008Z,44.40
2023-03-31T07:45:28.268Z,44.30
2023-03-31T07:47:57.412Z,44.00
2023-03-31T07:50:26.440Z,43.80
2023-03-31T07:52:59.406Z,43.70
2023-03-31T07:55:28.232Z,43.80
2023-03-31T07:57:57.233Z,43.60
2023-03-31T08:00:26.377Z,43.50
2023-03-31T08:02:55.435Z,44.10
2023-03-31T08:05:24.361Z,44.50
2023-03-31T08:07:53.512Z,44.20
2023-03-31T08:10:28.015Z,44.30
2023-03-31T08:12:57.555Z,44.40
2023-03-31T08:15:26.442Z,43.80
2023-03-31T08:17:55.550Z,44.00
2023-03-31T08:20:24.493Z,44.50
2023-03-31T08:22:53.631Z,43.70
2023-03-31T08:25:24.625Z,43.60
2023-03-31T08:27:53.759Z,43.10
2023-03-31T08:30:22.818Z,43.30
2023-03-31T08:32:51.899Z,43.00
2023-03-31T08:35:20.651Z,43.40
2023-03-31T08:37:49.673Z,43.50
2023-03-31T08:40:25.321Z,43.40
2023-03-31T08:42:59.361Z,43.40
2023-03-31T08:45:35.439Z,43.90
2023-03-31T08:48:14.877Z,43.50
2023-03-31T08:50:53.991Z,43.50
2023-03-31T08:53:30.348Z,43.70
2023-03-31T08:56:01.685Z,43.10
2023-03-31T08:58:40.616Z,42.60
2023-03-31T09:01:24.530Z,43.20
2023-03-31T09:04:21.051Z,43.00
2023-03-31T09:07:03.131Z,42.80
2023-03-31T09:09:55.298Z,43.20
2023-03-31T09:12:38.968Z,42.40
2023-03-31T09:15:15.944Z,42.00
2023-03-31T09:17:48.947Z,41.20
2023-03-31T09:20:26.142Z,41.30
2023-03-31T09:23:07.834Z,41.50
2023-03-31T09:25:42.349Z,41.40
2023-03-31T09:28:21.865Z,41.70
2023-03-31T09:30:51.925Z,42.10
2023-03-31T09:33:31.848Z,41.70
2023-03-31T09:36:01.467Z,41.30
2023-03-31T09:38:31.347Z,41.40
2023-03-31T09:41:03.033Z,41.80
2023-03-31T09:43:36.267Z,42.00
2023-03-31T09:46:17.217Z,41.80
2023-03-31T09:48:56.879Z,41.80
2023-03-31T09:51:32.830Z,41.60
2023-03-31T09:54:13.550Z,41.70
2023-03-31T09:56:53.945Z,40.90
2023-03-31T09:59:34.131Z,40.50
2023-03-31T10:02:26.738Z,40.60
2023-03-31T10:04:56.385Z,40.70
2023-03-31T10:07:27.552Z,41.10
2023-03-31T10:09:57.585Z,41.20
2023-03-31T10:12:30.182Z,40.50
2023-03-31T10:15:21.006Z,40.70
2023-03-31T10:17:55.451Z,40.20
2023-03-31T10:20:35.475Z,39.70
2023-03-31T10:23:16.577Z,39.80
2023-03-31T10:25:47.516Z,39.90
2023-03-31T10:28:21.103Z,40.60
2023-03-31T10:30:55.003Z,40.40
2023-03-31T10:33:28.229Z,40.30
2023-03-31T10:36:00.477Z,40.50
2023-03-31T10:38:34.993Z,39.90
2023-03-31T10:41:04.912Z,40.00
2023-03-31T10:43:42.916Z,40.30
2023-03-31T10:46:14.094Z,39.60
2023-03-31T10:48:45.105Z,39.90
2023-03-31T10:51:19.060Z,40.10
2023-03-31T10:53:50.905Z,39.60
2023-03-31T10:56:39.877Z,39.90
2023-03-31T10:59:25.237Z,39.10
2023-03-31T11:02:36.381Z,38.80
2023-03-31T11:05:16.715Z,38.40
2023-03-31T11:08:04.828Z,38.50
2023-03-31T11:10:58.936Z,39.00
2023-03-31T11:13:40.479Z,37.80
2023-03-31T11:16:25.258Z,38.10
2023-03-31T11:19:21.132Z,38.30
2023-03-31T11:22:04.110Z,39.10
2023-03-31T11:25:05.544Z,38.10
2023-03-31T11:28:02.362Z,38.90
2023-03-31T11:30:39.475Z,38.20
2023-03-31T11:33:45.684Z,38.20
2023-03-31T11:36:49.567Z,38.50
2023-03-31T11:39:41.829Z,37.60
2023-03-31T11:42:18.531Z,37.90
2023-03-31T11:44:54.725Z,37.90
2023-03-31T11:47:30.570Z,38.00
2023-03-31T11:50:05.990Z,37.90
2023-03-31T11:52:41.405Z,38.40
2023-03-31T11:55:19.438Z,38.80
2023-03-31T11:57:59.682Z,38.60
2023-03-31T12:00:33.098Z,38.00
2023-03-31T12:03:12.452Z,38.60
2023-03-31T12:05:48.733Z,38.10
2023-03-31T12:08:30.623Z,38.10
2023-03-31T12:11:08.855Z,38.30
2023-03-31T12:13:50.427Z,37.70
2023-03-31T12:16:25.122Z,37.40
2023-03-31T12:19:06.141Z,38.00
2023-03-31T12:21:40.152Z,38.40
2023-03-31T12:24:15.142Z,37.60
2023-03-31T12:26:57.773Z,37.60
2023-03-31T12:29:33.525Z,37.20
2023-03-31T12:32:12.148Z,36.80
2023-03-31T12:34:51.322Z,36.60
2023-03-31T12:38:01.703Z,37.80
2023-03-31T12:40:51.304Z,37.80
2023-03-31T12:43:50.460Z,37.70
2023-03-31T12:46:49.665Z,36.80
2023-03-31T12:49:41.335Z,37.00
2023-03-31T12:52:19.507Z,37.00
2023-03-31T12:55:33.897Z,37.00
2023-03-31T12:58:46.034Z,36.20
2023-03-31T13:01:21.662Z,36.60
2023-03-31T13:04:11.329Z,36.30
2023-03-31T13:07:01.643Z,36.60
2023-03-31T13:09:52.293Z,35.90
2023-03-31T13:12:25.717Z,36.70
2023-03-31T13:18:02.087Z,37.90
2023-03-31T13:20:37.818Z,39.00
2023-03-31T13:23:19.810Z,41.60
2023-03-31T13:25:51.979Z,42.20
2023-03-31T13:28:45.250Z,42.80
2023-03-31T13:31:17.438Z,43.20
2023-03-31T13:33:57.643Z,42.90
2023-03-31T13:37:01.386Z,41.10
2023-03-31T13:40:01.971Z,41.70
2023-03-31T13:43:02.317Z,40.70
2023-03-31T13:46:01.408Z,41.10
2023-03-31T13:48:50.704Z,40.20
2023-03-31T13:51:47.094Z,40.00
2023-03-31T13:54:59.617Z,40.40
2023-03-31T13:58:41.162Z,40.00
2023-03-31T14:01:51.450Z,39.60
2023-03-31T14:05:06.274Z,40.10
2023-03-31T14:07:42.958Z,39.10
2023-03-31T14:10:27.431Z,39.50
2023-03-31T14:13:09.197Z,38.90
2023-03-31T14:15:43.856Z,38.90
2023-03-31T14:18:21.542Z,38.10
2023-03-31T14:21:11.359Z,37.70
2023-03-31T14:23:56.555Z,37.50
2023-03-31T14:26:51.726Z,37.60
2023-03-31T14:29:29.753Z,38.10
2023-03-31T14:32:08.379Z,38.30
2023-03-31T14:34:55.880Z,38.10
2023-03-31T14:37:28.227Z,38.50
2023-03-31T14:40:00.037Z,38.00
2023-03-31T14:42:39.540Z,38.20
2023-03-31T14:45:19.986Z,38.20
2023-03-31T14:47:58.181Z,38.70
2023-03-31T14:50:34.973Z,38.80
2023-03-31T14:53:06.107Z,38.90
2023-03-31T14:58:12.452Z,39.50
2023-03-31T15:00:42.699Z,39.50
2023-03-31T15:03:17.836Z,39.20
2023-03-31T15:05:49.123Z,39.70
2023-03-31T15:08:25.258Z,39.40
2023-03-31T15:11:09.764Z,39.50
2023-03-31T15:13:53.034Z,39.60
2023-03-31T15:16:42.269Z,39.70
2023-03-31T15:19:20.636Z,39.80
2023-03-31T15:22:01.738Z,39.80
2023-03-31T15:24:33.210Z,40.20
2023-03-31T15:27:08.598Z,40.40
2023-03-31T15:29:42.809Z,40.90
2023-03-31T15:32:18.953Z,42.00
2023-03-31T15:34:48.456Z,42.70
2023-03-31T15:37:17.563Z,43.20
2023-03-31T15:39:50.164Z,42.60
2023-03-31T15:42:20.466Z,42.50
2023-03-31T15:44:56.788Z,42.50
2023-03-31T15:47:30.572Z,42.80
2023-03-31T15:50:13.220Z,43.10
2023-03-31T15:52:53.129Z,43.20
2023-03-31T15:55:31.276Z,43.10
2023-03-31T15:58:02.410Z,43.00
2023-03-31T16:00:47.400Z,43.50
2023-03-31T16:03:23.534Z,43.20
2023-03-31T16:05:57.995Z,43.30
2023-03-31T16:08:33.840Z,43.20
2023-03-31T16:11:11.191Z,43.30
2023-03-31T16:13:47.940Z,43.20
2023-03-31T16:16:22.305Z,43.40
2023-03-31T16:18:58.081Z,43.30
2023-03-31T16:21:34.968Z,43.80
2023-03-31T16:24:04.159Z,43.60
2023-03-31T16:26:35.737Z,43.70
2023-03-31T16:29:06.231Z,43.80
2023-03-31T16:31:39.595Z,43.80
2023-03-31T16:34:11.946Z,43.90
2023-03-31T16:36:41.226Z,43.80
2023-03-31T16:39:10.104Z,44.30
2023-03-31T16:41:40.704Z,44.20
2023-03-31T16:44:09.599Z,44.10
2023-03-31T16:46:38.817Z,44.20
2023-03-31T16:49:07.802Z,44.20
2023-03-31T16:51:36.988Z,44.20
2023-03-31T16:54:06.319Z,44.10
2023-03-31T16:56:35.594Z,44.30
2023-03-31T16:59:08.265Z,44.00
2023-03-31T17:01:37.633Z,44.00
2023-03-31T17:04:07.036Z,43.80
2023-03-31T17:06:36.433Z,43.80
2023-03-31T17:09:05.566Z,43.70
2023-03-31T17:11:35.129Z,43.60
2023-03-31T17:14:06.428Z,43.50
2023-03-31T17:16:47.362Z,43.60
2023-03-31T17:19:18.132Z,43.70
2023-03-31T17:21:47.321Z,43.60
2023-03-31T17:24:16.398Z,43.80
2023-03-31T17:26:45.724Z,44.20
2023-03-31T17:29:16.764Z,44.00
2023-03-31T17:31:46.117Z,43.80
2023-03-31T17:34:14.902Z,44.50
2023-03-31T17:36:44.550Z,45.00
2023-03-31T17:39:13.364Z,45.50
2023-03-31T17:41:42.434Z,46.00
2023-03-31T17:44:12.262Z,46.20
2023-03-31T17:46:42.854Z,46.50
2023-03-31T17:49:11.674Z,46.60
2023-03-31T17:51:40.727Z,46.80
2023-03-31T17:54:09.452Z,47.20
2023-03-31T17:56:38.973Z,47.00
2023-03-31T17:59:07.689Z,47.20
2023-03-31T18:01:36.816Z,47.50
2023-03-31T18:04:07.015Z,47.70
2023-03-31T18:06:36.099Z,47.90
2023-03-31T18:09:06.063Z,48.00
2023-03-31T18:11:35.230Z,48.40
2023-03-31T18:14:04.476Z,48.40
2023-03-31T18:16:33.991Z,48.60
2023-03-31T18:19:03.159Z,48.70
2023-03-31T18:21:33.556Z,48.60
2023-03-31T18:24:02.733Z,49.50
2023-03-31T18:26:31.829Z,49.50
2023-03-31T18:29:00.682Z,49.50
2023-03-31T18:31:30.877Z,49.30
2023-03-31T18:33:59.721Z,49.60
2023-03-31T18:36:29.831Z,49.30
2023-03-31T18:39:00.120Z,49.20
2023-03-31T18:41:29.909Z,49.10
2023-03-31T18:43:59.028Z,49.10
2023-03-31T18:46:28.209Z,49.10
2023-03-31T18:48:57.013Z,49.10
2023-03-31T18:51:26.087Z,49.30
2023-03-31T18:53:54.931Z,49.20
2023-03-31T18:56:25.294Z,49.20
2023-03-31T18:58:54.081Z,49.30
2023-03-31T19:01:24.221Z,49.20
2023-03-31T19:03:53.115Z,49.20
2023-03-31T19:06:22.515Z,49.40
2023-03-31T19:08:52.014Z,50.00
2023-03-31T19:11:21.067Z,49.40
2023-03-31T19:13:52.772Z,49.10
2023-03-31T19:16:22.068Z,49.20
2023-03-31T19:18:50.952Z,49.00
2023-03-31T19:21:20.246Z,49.20
2023-03-31T19:23:49.340Z,49.00
2023-03-31T19:26:19.788Z,49.60
2023-03-31T19:28:50.128Z,49.60
2023-03-31T19:31:19.268Z,49.70
2023-03-31T19:33:48.450Z,49.60
2023-03-31T19:36:18.269Z,50.30
2023-03-31T19:38:47.051Z,49.90
2023-03-31T19:41:18.238Z,50.00
2023-03-31T19:43:47.990Z,50.10
2023-03-31T19:46:19.760Z,49.50
2023-03-31T19:48:48.578Z,49.40
2023-03-31T19:51:18.963Z,49.60
2023-03-31T19:53:48.044Z,49.50
2023-03-31T19:56:18.906Z,49.60
2023-03-31T19:58:50.152Z,49.50
2023-03-31T20:01:23.402Z,49.60
2023-03-31T20:03:53.166Z,49.30
2023-03-31T20:06:24.915Z,49.30
2023-03-31T20:08:56.119Z,49.40
2023-03-31T20:11:26.118Z,49.20
2023-03-31T20:13:56.267Z,49.20
2023-03-31T20:16:29.310Z,49.20
2023-03-31T20:19:01.354Z,49.40
2023-03-31T20:21:33.018Z,49.20
2023-03-31T20:24:01.915Z,49.20
2023-03-31T20:26:32.649Z,49.10
2023-03-31T20:29:03.992Z,49.90
2023-03-31T20:31:37.654Z,49.00
2023-03-31T20:34:12.260Z,49.00
2023-03-31T20:36:43.923Z,49.00
2023-03-31T20:39:16.195Z,49.10
2023-03-31T20:41:45.913Z,49.10
2023-03-31T20:44:15.828Z,49.10
2023-03-31T20:46:46.719Z,49.40
2023-03-31T20:49:15.636Z,49.50
2023-03-31T20:51:46.458Z,49.30
2023-03-31T20:54:15.375Z,49.30
2023-03-31T20:56:44.715Z,49.40
2023-03-31T20:59:16.300Z,49.20
2023-03-31T21:01:49.405Z,49.30
2023-03-31T21:04:18.327Z,49.30
2023-03-31T21:06:48.944Z,49.20
2023-03-31T21:09:18.497Z,49.30
2023-03-31T21:11:47.761Z,49.30
2023-03-31T21:14:17.877Z,49.40
2023-03-31T21:16:48.769Z,49.20
2023-03-31T21:19:17.562Z,49.20
2023-03-31T21:21:46.597Z,49.10
2023-03-31T21:24:16.364Z,49.40
2023-03-31T21:26:45.487Z,49.80
2023-03-31T21:29:14.394Z,49.60
2023-03-31T21:31:45.030Z,49.10
2023-03-31T21:34:15.252Z,49.60
2023-03-31T21:36:44.278Z,49.40
2023-03-31T21:39:13.076Z,49.50
2023-03-31T21:41:42.312Z,50.40
2023-03-31T21:44:11.194Z,50.00
2023-03-31T21:46:41.228Z,50.10
2023-03-31T21:49:10.033Z,49.80
2023-03-31T21:51:40.518Z,49.70
2023-03-31T21:54:09.239Z,50.50
2023-03-31T21:56:38.294Z,50.60
2023-03-31T21:59:07.362Z,52.30
2023-03-31T22:01:36.371Z,53.30
2023-03-31T22:04:05.183Z,52.80
2023-03-31T22:06:34.628Z,52.40
2023-03-31T22:09:04.923Z,50.90
2023-03-31T22:11:33.993Z,51.70
2023-03-31T22:14:02.764Z,52.10
2023-03-31T22:16:32.125Z,51.90
2023-03-31T22:19:00.973Z,51.60
2023-03-31T22:21:43.589Z,51.50
2023-03-31T22:24:14.542Z,51.50
2023-03-31T22:26:43.714Z,51.50
2023-03-31T22:29:16.602Z,51.20
2023-03-31T22:31:45.701Z,50.90
2023-03-31T22:34:15.543Z,51.50
2023-03-31T22:36:44.576Z,50.20
2023-03-31T22:39:14.739Z,50.50
2023-03-31T22:41:44.314Z,50.50
2023-03-31T22:44:13.241Z,50.30
2023-03-31T22:46:42.576Z,50.50
2023-03-31T22:49:11.343Z,50.30
2023-03-31T22:51:40.847Z,49.90
2023-03-31T22:54:15.759Z,49.60
2023-03-31T22:56:45.442Z,49.80
2023-03-31T22:59:14.656Z,50.00
2023-03-31T23:01:43.761Z,49.80
2023-03-31T23:04:12.579Z,50.00
2023-03-31T23:06:41.581Z,49.70
2023-03-31T23:09:10.507Z,49.70
2023-03-31T23:11:40.947Z,49.70
2023-03-31T23:14:09.818Z,49.70
2023-03-31T23:16:38.995Z,49.70
2023-03-31T23:19:08.150Z,49.70
2023-03-31T23:21:37.479Z,49.70
2023-03-31T23:24:06.781Z,49.60
2023-03-31T23:26:36.142Z,49.60
2023-03-31T23:29:06.720Z,49.60
2023-03-31T23:31:35.895Z,49.40
2023-03-31T23:34:04.677Z,49.50
2023-03-31T23:36:33.793Z,49.50
2023-03-31T23:39:02.803Z,49.50
2023-03-31T23:41:31.806Z,49.50
2023-03-31T23:44:00.723Z,49.50
2023-03-31T23:46:32.099Z,49.70
2023-03-31T23:49:02.691Z,49.60
2023-03-31T23:51:31.793Z,49.50
2023-03-31T23:54:00.737Z,50.20
2023-03-31T23:56:30.643Z,49.80
2023-03-31T23:58:59.615Z,49.60
